Fairfield, Texas
Current Conditions -  °F | °C
As of 11:15 AM on Sunday 21 Dec 2014 (Local Time) from KLXY Reporting Station
Overcast Overcast  
Wind Chill: 45°   Ceiling: 800
Heat Index: 48°   Visibility: 10mi
Dew Point: 46°   Wind: 7mph
Humidity: 92%   Direction: 190°S
Pressure: 30.1"   Gusts: NA
Location:  31.72°N, 96.17°W
Report Text: KLXY 211715Z AUTO 19006KT 10SM BKN008 OVC014 09/08 A3010 RMK AO2 T00910079
Loading
Personal Weather Stations






























Interactive Weather Map New forecast layout! Learn more

10-Day Weather Forecast

Advertisements
Track Severe Weather on mobile